createdAt,value
2018-03-22T00:02:12.779Z,5.41
2018-03-22T00:04:41.111Z,5.48
2018-03-22T00:07:09.465Z,5.49
2018-03-22T00:09:37.795Z,5.51
2018-03-22T00:12:06.150Z,5.39
2018-03-22T00:14:34.484Z,5.32
2018-03-22T00:17:02.827Z,5.32
2018-03-22T00:19:31.162Z,5.34
2018-03-22T00:21:59.511Z,5.38
2018-03-22T00:24:27.838Z,5.39
2018-03-22T00:26:56.191Z,5.36
2018-03-22T00:29:24.524Z,5.36
2018-03-22T00:31:52.875Z,5.37
2018-03-22T00:34:21.203Z,5.40
2018-03-22T00:36:49.550Z,5.41
2018-03-22T00:39:17.889Z,5.40
2018-03-22T00:41:46.217Z,5.43
2018-03-22T00:44:14.547Z,5.35
2018-03-22T00:46:42.892Z,5.33
2018-03-22T00:49:11.217Z,5.33
2018-03-22T00:51:39.566Z,5.28
2018-03-22T00:54:07.893Z,5.32
2018-03-22T00:56:36.237Z,5.32
2018-03-22T00:59:04.570Z,5.34
2018-03-22T01:01:32.926Z,5.27
2018-03-22T01:04:01.254Z,5.37
2018-03-22T01:06:29.606Z,5.40
2018-03-22T01:08:57.931Z,5.38
2018-03-22T01:11:26.282Z,5.34
2018-03-22T01:13:54.610Z,5.34
2018-03-22T01:16:22.961Z,5.41
2018-03-22T01:18:51.281Z,5.44
2018-03-22T01:21:19.630Z,5.46
2018-03-22T01:23:47.960Z,5.35
2018-03-22T01:26:16.309Z,5.37
2018-03-22T01:28:44.639Z,5.42
2018-03-22T01:31:12.979Z,5.42
2018-03-22T01:33:41.306Z,5.41
2018-03-22T01:36:09.658Z,5.42
2018-03-22T01:38:37.987Z,5.42
2018-03-22T01:41:06.330Z,5.53
2018-03-22T01:43:34.653Z,5.53
2018-03-22T01:46:03.010Z,5.65
2018-03-22T01:48:31.340Z,5.71
2018-03-22T01:50:59.663Z,5.69
2018-03-22T01:53:28.010Z,5.63
2018-03-22T01:55:56.338Z,5.69
2018-03-22T01:58:24.685Z,5.54
2018-03-22T02:00:53.014Z,5.40
2018-03-22T02:03:21.362Z,5.43
2018-03-22T02:05:49.686Z,5.41
2018-03-22T02:08:18.038Z,5.38
2018-03-22T02:10:46.358Z,5.34
2018-03-22T02:13:14.707Z,5.29
2018-03-22T02:15:43.034Z,5.27
2018-03-22T02:18:11.386Z,5.21
2018-03-22T02:20:39.718Z,5.19
2018-03-22T02:23:08.067Z,5.26
2018-03-22T02:25:36.390Z,5.13
2018-03-22T02:28:04.740Z,5.05
2018-03-22T02:30:33.062Z,5.00
2018-03-22T02:33:01.411Z,4.95
2018-03-22T02:35:29.744Z,5.01
2018-03-22T02:37:58.084Z,5.02
2018-03-22T02:40:26.410Z,4.99
2018-03-22T02:42:54.759Z,4.92
2018-03-22T02:45:23.087Z,4.76
2018-03-22T02:47:51.438Z,4.74
2018-03-22T02:50:19.768Z,4.71
2018-03-22T02:52:48.118Z,4.59
2018-03-22T02:55:16.456Z,4.55
2018-03-22T02:57:44.803Z,4.52
2018-03-22T03:00:13.152Z,4.59
2018-03-22T03:02:41.483Z,4.47
2018-03-22T03:05:09.814Z,4.40
2018-03-22T03:07:38.163Z,4.35
2018-03-22T03:10:06.490Z,4.34
2018-03-22T03:12:34.838Z,4.36
2018-03-22T03:15:03.166Z,4.36
2018-03-22T03:17:31.513Z,4.35
2018-03-22T03:19:59.837Z,4.32
2018-03-22T03:22:28.190Z,4.30
2018-03-22T03:24:56.510Z,4.38
2018-03-22T03:27:24.863Z,4.36
2018-03-22T03:29:53.186Z,4.36
2018-03-22T03:32:21.534Z,4.35
2018-03-22T03:34:49.857Z,4.37
2018-03-22T03:37:18.207Z,4.39
2018-03-22T03:39:46.533Z,4.41
2018-03-22T03:42:14.885Z,4.39
2018-03-22T03:44:43.209Z,4.42
2018-03-22T03:47:11.557Z,4.45
2018-03-22T03:49:39.886Z,4.52
2018-03-22T03:52:08.214Z,4.53
2018-03-22T03:54:36.562Z,4.52
2018-03-22T03:57:04.891Z,4.56
2018-03-22T03:59:33.240Z,4.55
2018-03-22T04:02:01.563Z,4.53
2018-03-22T04:04:29.914Z,4.51
2018-03-22T04:06:58.250Z,4.54
2018-03-22T04:09:26.594Z,4.59
2018-03-22T04:11:54.924Z,4.65
2018-03-22T04:14:23.270Z,4.63
2018-03-22T04:16:51.593Z,4.61
2018-03-22T04:19:19.947Z,4.56
2018-03-22T04:21:48.269Z,4.60
2018-03-22T04:24:16.618Z,4.61
2018-03-22T04:26:44.946Z,4.65
2018-03-22T04:29:13.290Z,4.71
2018-03-22T04:31:41.622Z,4.72
2018-03-22T04:34:09.965Z,4.69
2018-03-22T04:36:38.295Z,4.68
2018-03-22T04:39:06.641Z,4.60
2018-03-22T04:41:34.966Z,4.60
2018-03-22T04:44:03.318Z,4.57
2018-03-22T04:46:31.642Z,4.55
2018-03-22T04:48:59.986Z,4.56
2018-03-22T04:51:28.310Z,4.63
2018-03-22T04:53:56.657Z,4.66
2018-03-22T04:56:24.986Z,4.63
2018-03-22T04:58:53.334Z,4.61
2018-03-22T05:01:21.662Z,4.60
2018-03-22T05:03:50.014Z,4.63
2018-03-22T05:06:18.337Z,4.67
2018-03-22T05:08:46.686Z,4.73
2018-03-22T05:11:15.010Z,4.71
2018-03-22T05:13:43.353Z,4.78
2018-03-22T05:16:11.677Z,4.75
2018-03-22T05:18:40.063Z,4.74
2018-03-22T05:21:08.365Z,4.77
2018-03-22T05:23:36.709Z,4.79
2018-03-22T05:26:05.034Z,4.83
2018-03-22T05:28:33.382Z,4.91
2018-03-22T05:31:01.706Z,4.93
2018-03-22T05:33:30.053Z,4.98
2018-03-22T05:35:58.377Z,5.01
2018-03-22T05:38:26.735Z,4.91
2018-03-22T05:40:55.069Z,4.92
2018-03-22T05:43:23.458Z,4.93
2018-03-22T05:45:51.738Z,4.94
2018-03-22T05:48:20.089Z,4.88
2018-03-22T05:50:48.413Z,4.85
2018-03-22T05:53:16.762Z,4.91
2018-03-22T05:55:45.110Z,4.80
2018-03-22T05:58:13.438Z,4.79
2018-03-22T06:00:41.785Z,4.79
2018-03-22T06:03:10.153Z,4.87
2018-03-22T06:05:38.457Z,4.89
2018-03-22T06:08:06.786Z,4.86
2018-03-22T06:10:35.139Z,4.91
2018-03-22T06:13:03.469Z,4.94
2018-03-22T06:15:31.814Z,4.97
2018-03-22T06:18:00.138Z,4.97
2018-03-22T06:20:28.489Z,4.92
2018-03-22T06:22:56.818Z,4.95
2018-03-22T06:25:25.171Z,4.97
2018-03-22T06:27:53.497Z,4.99
2018-03-22T06:30:21.846Z,5.00
2018-03-22T06:32:50.244Z,5.06
2018-03-22T06:35:18.526Z,5.06
2018-03-22T06:37:46.851Z,5.10
2018-03-22T06:40:15.199Z,5.13
2018-03-22T06:42:43.527Z,5.18
2018-03-22T06:45:11.878Z,5.15
2018-03-22T06:47:40.213Z,5.12
2018-03-22T06:50:08.554Z,5.05
2018-03-22T06:52:36.887Z,5.05
2018-03-22T06:55:05.234Z,5.02
2018-03-22T06:57:33.562Z,5.04
2018-03-22T07:00:01.910Z,5.09
2018-03-22T07:02:30.235Z,5.08
2018-03-22T07:04:58.586Z,5.02
2018-03-22T07:07:26.922Z,4.90
2018-03-22T07:09:55.269Z,4.93
2018-03-22T07:12:23.603Z,4.91
2018-03-22T07:14:51.951Z,4.90
2018-03-22T07:17:20.284Z,4.87
2018-03-22T07:19:48.689Z,4.79
2018-03-22T07:22:16.962Z,4.82
2018-03-22T07:24:45.994Z,4.93
2018-03-22T07:27:14.323Z,4.89
2018-03-22T07:29:42.678Z,4.93
2018-03-22T07:32:11.006Z,4.93
2018-03-22T07:34:39.357Z,4.98
2018-03-22T07:37:07.704Z,5.01
2018-03-22T07:39:36.059Z,5.13
2018-03-22T07:42:04.394Z,5.15
2018-03-22T07:44:38.438Z,5.16
2018-03-22T07:47:07.750Z,5.19
2018-03-22T07:49:36.106Z,5.21
2018-03-22T07:52:04.438Z,5.30
2018-03-22T07:54:32.785Z,5.31
2018-03-22T07:57:01.126Z,5.37
2018-03-22T07:59:29.450Z,5.39
2018-03-22T08:01:57.814Z,5.41
2018-03-22T08:04:26.134Z,5.40
2018-03-22T08:06:54.490Z,5.43
2018-03-22T08:09:22.833Z,5.43
2018-03-22T08:11:51.182Z,5.37
2018-03-22T08:14:19.505Z,5.29
2018-03-22T08:16:47.858Z,5.32
2018-03-22T08:19:16.189Z,5.42
2018-03-22T08:21:44.546Z,5.49
2018-03-22T08:24:12.879Z,5.50
2018-03-22T08:26:41.234Z,5.42
2018-03-22T08:29:09.566Z,5.50
2018-03-22T08:31:37.978Z,5.53
2018-03-22T08:34:06.251Z,5.49
2018-03-22T08:36:34.594Z,5.53
2018-03-22T08:39:02.930Z,5.66
2018-03-22T08:41:31.295Z,5.90
2018-03-22T08:43:59.624Z,5.81
2018-03-22T08:46:28.594Z,5.80
2018-03-22T08:48:56.921Z,5.68
2018-03-22T08:51:25.273Z,5.70
2018-03-22T08:53:53.604Z,5.75
2018-03-22T08:56:21.958Z,5.77
2018-03-22T08:58:50.285Z,5.74
2018-03-22T09:01:18.659Z,5.74
2018-03-22T09:03:46.981Z,5.73
2018-03-22T09:06:16.114Z,5.79
2018-03-22T09:08:44.455Z,5.84
2018-03-22T09:11:12.803Z,5.85
2018-03-22T09:13:41.136Z,5.91
2018-03-22T09:16:09.481Z,5.89
2018-03-22T09:18:37.814Z,5.89
2018-03-22T09:21:06.170Z,5.94
2018-03-22T09:23:34.497Z,5.96
2018-03-22T09:26:02.850Z,6.01
2018-03-22T09:28:31.177Z,5.99
2018-03-22T09:30:59.530Z,6.04
2018-03-22T09:33:27.862Z,6.06
2018-03-22T09:35:56.209Z,6.04
2018-03-22T09:38:24.546Z,6.07
2018-03-22T09:40:52.898Z,6.11
2018-03-22T09:43:21.230Z,6.24
2018-03-22T09:45:49.577Z,6.41
2018-03-22T09:48:17.919Z,6.40
2018-03-22T09:50:46.272Z,6.41
2018-03-22T09:53:14.598Z,6.48
2018-03-22T09:55:42.946Z,6.46
2018-03-22T09:58:11.277Z,6.43
2018-03-22T10:00:39.636Z,6.49
2018-03-22T10:03:08.382Z,6.57
2018-03-22T10:05:36.714Z,6.55
2018-03-22T10:08:05.070Z,6.64
2018-03-22T10:10:33.403Z,6.56
2018-03-22T10:13:01.763Z,6.53
2018-03-22T10:15:30.090Z,6.61
2018-03-22T10:17:58.450Z,6.71
2018-03-22T10:20:26.778Z,6.78
2018-03-22T10:22:55.135Z,6.79
2018-03-22T10:25:23.471Z,6.74
2018-03-22T10:27:51.830Z,6.78
2018-03-22T10:30:20.169Z,6.83
2018-03-22T10:32:48.669Z,6.89
2018-03-22T10:35:17.003Z,6.91
2018-03-22T10:37:45.358Z,6.96
2018-03-22T10:40:13.689Z,7.01
2018-03-22T10:42:42.682Z,7.06
2018-03-22T10:45:11.018Z,7.06
2018-03-22T10:47:39.366Z,7.14
2018-03-22T10:50:07.700Z,7.18
2018-03-22T10:52:36.065Z,7.17
2018-03-22T10:55:04.399Z,7.25
2018-03-22T10:57:32.749Z,7.37
2018-03-22T11:00:01.142Z,7.39
2018-03-22T11:02:35.043Z,7.43
2018-03-22T11:05:03.517Z,7.52
2018-03-22T11:07:32.114Z,7.63
2018-03-22T11:10:00.468Z,7.68
2018-03-22T11:12:28.831Z,7.70
2018-03-22T11:14:57.178Z,7.75
2018-03-22T11:17:25.531Z,7.73
2018-03-22T11:19:53.866Z,7.82
2018-03-22T11:22:22.280Z,7.91
2018-03-22T11:24:50.642Z,8.02
2018-03-22T11:27:19.028Z,8.13
2018-03-22T11:29:47.359Z,8.10
2018-03-22T11:32:16.041Z,8.05
2018-03-22T11:34:44.783Z,8.09
2018-03-22T11:37:13.499Z,8.06
2018-03-22T11:39:42.007Z,8.11
2018-03-22T11:42:10.625Z,8.14
2018-03-22T11:44:39.222Z,8.19
2018-03-22T11:47:07.826Z,8.24
2018-03-22T11:49:36.182Z,8.21
2018-03-22T11:52:04.562Z,8.17
2018-03-22T11:54:32.899Z,8.07
2018-03-22T11:57:01.253Z,8.05
2018-03-22T11:59:29.587Z,8.01
2018-03-22T12:01:57.951Z,7.96
2018-03-22T12:04:26.270Z,7.86
2018-03-22T12:06:54.639Z,7.84
2018-03-22T12:09:22.996Z,7.78
2018-03-22T12:11:51.314Z,7.75
2018-03-22T12:14:19.667Z,7.75
2018-03-22T12:16:48.010Z,7.79
2018-03-22T12:19:16.490Z,7.76
2018-03-22T12:21:44.877Z,7.83
2018-03-22T12:24:13.184Z,7.77
2018-03-22T12:26:41.515Z,7.77
2018-03-22T12:29:09.871Z,7.79
2018-03-22T12:31:38.203Z,7.72
2018-03-22T12:34:06.593Z,7.72
2018-03-22T12:36:35.878Z,7.79
2018-03-22T12:39:04.239Z,7.83
2018-03-22T12:41:32.578Z,7.78
2018-03-22T12:44:00.930Z,7.78
2018-03-22T12:46:30.195Z,7.84
2018-03-22T12:48:58.554Z,7.85
2018-03-22T12:51:26.908Z,8.01
2018-03-22T12:53:55.263Z,7.96
2018-03-22T12:56:24.527Z,7.97
2018-03-22T12:58:52.887Z,7.97
2018-03-22T13:01:21.213Z,8.04
2018-03-22T13:03:49.583Z,8.07
2018-03-22T13:06:17.910Z,8.15
2018-03-22T13:08:46.258Z,8.25
2018-03-22T13:11:14.606Z,8.28
2018-03-22T13:13:42.958Z,8.32
2018-03-22T13:16:11.294Z,8.37
2018-03-22T13:18:39.701Z,8.45
2018-03-22T13:21:08.008Z,9.06
2018-03-22T13:23:36.363Z,8.97
2018-03-22T13:26:04.690Z,8.90
2018-03-22T13:28:33.049Z,8.90
2018-03-22T13:31:01.403Z,8.98
2018-03-22T13:33:29.759Z,9.02
2018-03-22T13:35:58.096Z,9.07
2018-03-22T13:38:26.466Z,9.07
2018-03-22T13:40:54.795Z,9.10
2018-03-22T13:43:23.160Z,9.19
2018-03-22T13:45:51.482Z,9.23
2018-03-22T13:48:19.842Z,9.30
2018-03-22T13:50:48.184Z,9.28
2018-03-22T13:53:16.544Z,9.28
2018-03-22T13:55:44.884Z,9.28
2018-03-22T13:58:13.239Z,9.28
2018-03-22T14:00:41.576Z,9.32
2018-03-22T14:03:09.927Z,9.34
2018-03-22T14:05:38.266Z,9.43
2018-03-22T14:08:06.614Z,9.37
2018-03-22T14:10:34.951Z,9.38
2018-03-22T14:13:03.314Z,9.47
2018-03-22T14:15:31.646Z,9.45
2018-03-22T14:17:59.974Z,9.46
2018-03-22T14:20:28.352Z,9.52
2018-03-22T14:22:56.700Z,9.50
2018-03-22T14:25:25.146Z,9.54
2018-03-22T14:27:53.482Z,9.50
2018-03-22T14:30:21.858Z,9.50
2018-03-22T14:32:50.198Z,9.49
2018-03-22T14:35:18.824Z,9.50
2018-03-22T14:37:47.275Z,9.52
2018-03-22T14:40:15.635Z,9.48
2018-03-22T14:42:44.031Z,9.43
2018-03-22T14:45:12.410Z,9.48
2018-03-22T14:47:40.753Z,9.48
2018-03-22T14:50:09.102Z,9.46
2018-03-22T14:52:37.458Z,9.45
2018-03-22T14:55:05.896Z,9.48
2018-03-22T14:57:34.247Z,9.54
2018-03-22T15:00:02.618Z,9.63
2018-03-22T15:02:31.000Z,9.71
2018-03-22T15:04:59.386Z,9.77
2018-03-22T15:07:27.742Z,9.80
2018-03-22T15:09:56.094Z,9.86
2018-03-22T15:12:24.531Z,9.92
2018-03-22T15:14:53.027Z,9.94
2018-03-22T15:17:21.571Z,9.89
2018-03-22T15:19:49.925Z,9.93
2018-03-22T15:22:18.254Z,9.93
2018-03-22T15:24:46.626Z,9.91
2018-03-22T15:27:14.986Z,9.94
2018-03-22T15:29:43.360Z,9.94
2018-03-22T15:32:11.814Z,9.96
2018-03-22T15:34:40.160Z,9.98
2018-03-22T15:37:09.354Z,9.98
2018-03-22T15:39:37.702Z,10.03
2018-03-22T15:42:06.031Z,10.04
2018-03-22T15:44:34.404Z,10.07
2018-03-22T15:47:02.891Z,10.09
2018-03-22T15:49:31.240Z,10.07
2018-03-22T15:51:59.571Z,10.00
2018-03-22T15:54:27.915Z,10.09
2018-03-22T15:56:56.242Z,10.09
2018-03-22T15:59:24.583Z,10.08
2018-03-22T16:01:52.906Z,10.12
2018-03-22T16:04:21.255Z,10.05
2018-03-22T16:06:50.530Z,10.11
2018-03-22T16:09:18.891Z,10.18
2018-03-22T16:11:47.225Z,10.20
2018-03-22T16:14:15.566Z,10.21
2018-03-22T16:16:43.903Z,10.18
2018-03-22T16:19:12.226Z,10.19
2018-03-22T16:21:40.590Z,10.22
2018-03-22T16:24:08.946Z,10.13
2018-03-22T16:26:38.235Z,10.17
2018-03-22T16:29:06.917Z,10.18
2018-03-22T16:31:35.268Z,10.14
2018-03-22T16:34:03.639Z,10.20
2018-03-22T16:36:32.233Z,10.22
2018-03-22T16:39:00.554Z,10.19
2018-03-22T16:41:28.907Z,10.21
2018-03-22T16:43:57.242Z,10.21
2018-03-22T16:46:25.594Z,10.22
2018-03-22T16:48:53.917Z,10.23
2018-03-22T16:51:22.269Z,10.25
2018-03-22T16:53:50.586Z,10.18
2018-03-22T16:56:19.915Z,10.13
2018-03-22T16:58:48.246Z,10.11
2018-03-22T17:01:16.590Z,10.13
2018-03-22T17:03:44.914Z,10.16
2018-03-22T17:06:14.259Z,10.19
2018-03-22T17:08:42.598Z,10.11
2018-03-22T17:11:11.054Z,10.06
2018-03-22T17:13:39.419Z,10.05
2018-03-22T17:16:07.733Z,10.03
2018-03-22T17:18:36.053Z,9.98
2018-03-22T17:21:04.391Z,9.98
2018-03-22T17:23:32.735Z,9.99
2018-03-22T17:26:01.078Z,10.01
2018-03-22T17:28:29.402Z,10.01
2018-03-22T17:30:57.791Z,10.01
2018-03-22T17:33:26.338Z,10.04
2018-03-22T17:35:54.690Z,10.07
2018-03-22T17:38:23.014Z,10.08
2018-03-22T17:40:51.363Z,10.09
2018-03-22T17:43:19.694Z,10.04
2018-03-22T17:45:48.062Z,10.00
2018-03-22T17:48:16.399Z,9.95
2018-03-22T17:50:44.751Z,9.88
2018-03-22T17:53:13.082Z,9.84
2018-03-22T17:55:42.286Z,9.79
2018-03-22T17:58:10.623Z,9.81
2018-03-22T18:00:38.970Z,9.80
2018-03-22T18:03:07.311Z,9.78
2018-03-22T18:05:35.654Z,9.79
2018-03-22T18:08:03.982Z,9.80
2018-03-22T18:10:36.786Z,9.78
2018-03-22T18:13:07.028Z,9.70
2018-03-22T18:15:35.391Z,10.28
2018-03-22T18:18:03.710Z,9.83
2018-03-22T18:20:32.054Z,9.64
2018-03-22T18:23:00.374Z,9.63
2018-03-22T18:25:28.734Z,9.62
2018-03-22T18:27:57.051Z,9.57
2018-03-22T18:30:25.374Z,9.56
2018-03-22T18:32:53.714Z,9.57
2018-03-22T18:35:22.108Z,9.52
2018-03-22T18:37:50.392Z,9.48
2018-03-22T18:40:18.719Z,9.49
2018-03-22T18:42:47.058Z,9.52
2018-03-22T18:45:15.378Z,9.44
2018-03-22T18:47:43.718Z,9.46
2018-03-22T18:50:12.046Z,9.41
2018-03-22T18:52:40.398Z,9.35
2018-03-22T18:55:08.727Z,9.34
2018-03-22T18:57:37.066Z,9.38
2018-03-22T19:00:05.411Z,9.36
2018-03-22T19:02:33.798Z,9.25
2018-03-22T19:05:02.162Z,9.24
2018-03-22T19:07:30.489Z,9.25
2018-03-22T19:09:58.818Z,9.26
2018-03-22T19:12:27.165Z,9.25
2018-03-22T19:14:55.493Z,9.22
2018-03-22T19:17:23.843Z,9.22
2018-03-22T19:19:52.175Z,9.21
2018-03-22T19:22:20.516Z,9.20
2018-03-22T19:24:48.838Z,9.13
2018-03-22T19:27:17.181Z,9.11
2018-03-22T19:29:45.515Z,9.14
2018-03-22T19:32:13.875Z,9.14
2018-03-22T19:34:42.206Z,9.17
2018-03-22T19:37:10.613Z,9.15
2018-03-22T19:39:38.888Z,9.17
2018-03-22T19:42:07.234Z,9.13
2018-03-22T19:44:35.565Z,9.13
2018-03-22T19:47:03.922Z,9.15
2018-03-22T19:49:32.255Z,9.15
2018-03-22T19:52:00.602Z,9.17
2018-03-22T19:54:28.938Z,9.16
2018-03-22T19:56:58.154Z,9.17
2018-03-22T19:59:26.490Z,9.13
2018-03-22T20:01:54.838Z,9.09
2018-03-22T20:04:23.181Z,8.99
2018-03-22T20:06:51.535Z,8.93
2018-03-22T20:09:19.875Z,8.97
2018-03-22T20:11:48.222Z,8.97
2018-03-22T20:14:16.557Z,8.93
2018-03-22T20:16:44.907Z,8.90
2018-03-22T20:19:13.239Z,8.93
2018-03-22T20:21:41.599Z,8.92
2018-03-22T20:24:09.927Z,8.96
2018-03-22T20:26:39.235Z,8.89
2018-03-22T20:29:07.570Z,8.87
2018-03-22T20:31:35.897Z,8.88
2018-03-22T20:34:04.246Z,8.84
2018-03-22T20:36:32.588Z,8.83
2018-03-22T20:39:00.930Z,8.84
2018-03-22T20:41:29.254Z,8.84
2018-03-22T20:43:57.598Z,8.86
2018-03-22T20:46:25.931Z,8.88
2018-03-22T20:48:54.275Z,8.77
2018-03-22T20:51:22.606Z,8.77
2018-03-22T20:53:50.961Z,8.73
2018-03-22T20:56:19.295Z,8.69
2018-03-22T20:58:47.639Z,8.68
2018-03-22T21:01:15.970Z,8.69
2018-03-22T21:03:44.324Z,8.65
2018-03-22T21:06:13.635Z,8.66
2018-03-22T21:08:41.978Z,8.66
2018-03-22T21:11:10.306Z,8.60
2018-03-22T21:13:38.646Z,8.57
2018-03-22T21:16:07.111Z,8.54
2018-03-22T21:18:35.444Z,8.52
2018-03-22T21:21:03.770Z,8.48
2018-03-22T21:23:32.111Z,8.46
2018-03-22T21:26:00.421Z,8.49
2018-03-22T21:28:28.762Z,8.49
2018-03-22T21:30:57.106Z,8.42
2018-03-22T21:33:25.446Z,8.42
2018-03-22T21:35:54.438Z,8.35
2018-03-22T21:38:22.778Z,8.32
2018-03-22T21:40:51.094Z,8.29
2018-03-22T21:43:19.440Z,8.30
2018-03-22T21:45:47.867Z,8.33
2018-03-22T21:48:16.191Z,8.36
2018-03-22T21:50:49.962Z,8.40
2018-03-22T21:53:18.402Z,8.32
2018-03-22T21:55:46.725Z,8.28
2018-03-22T21:58:15.067Z,8.24
2018-03-22T22:00:43.391Z,8.23
2018-03-22T22:03:11.738Z,8.21
2018-03-22T22:05:40.056Z,8.10
2018-03-22T22:08:08.390Z,8.10
2018-03-22T22:10:36.706Z,8.07
2018-03-22T22:13:05.043Z,8.05
2018-03-22T22:15:33.366Z,8.00
2018-03-22T22:18:01.889Z,7.98
2018-03-22T22:20:30.206Z,7.90
2018-03-22T22:22:58.546Z,7.90
2018-03-22T22:25:26.870Z,7.96
2018-03-22T22:27:55.214Z,7.97
2018-03-22T22:30:23.531Z,7.96
2018-03-22T22:32:51.885Z,7.99
2018-03-22T22:35:20.207Z,8.02
2018-03-22T22:37:48.546Z,7.94
2018-03-22T22:40:16.895Z,7.89
2018-03-22T22:42:45.208Z,7.98
2018-03-22T22:45:13.550Z,8.01
2018-03-22T22:47:41.874Z,7.97
2018-03-22T22:50:10.202Z,7.95
2018-03-22T22:52:38.526Z,7.99
2018-03-22T22:55:06.861Z,7.95
2018-03-22T22:57:35.171Z,7.95
2018-03-22T23:00:03.503Z,8.00
2018-03-22T23:02:31.805Z,7.99
2018-03-22T23:05:00.134Z,7.95
2018-03-22T23:07:28.451Z,7.90
2018-03-22T23:09:56.779Z,7.91
2018-03-22T23:12:25.087Z,7.94
2018-03-22T23:14:53.410Z,7.93
2018-03-22T23:17:21.721Z,7.93
2018-03-22T23:19:50.056Z,7.97
2018-03-22T23:22:18.358Z,7.93
2018-03-22T23:24:46.689Z,7.97
2018-03-22T23:27:15.002Z,7.97
2018-03-22T23:29:43.329Z,7.95
2018-03-22T23:32:11.638Z,8.00
2018-03-22T23:34:39.970Z,7.93
2018-03-22T23:37:08.278Z,7.93
2018-03-22T23:39:36.606Z,7.98
2018-03-22T23:42:04.914Z,8.00
2018-03-22T23:44:33.250Z,8.04
2018-03-22T23:47:01.554Z,8.03
2018-03-22T23:49:29.886Z,8.03
2018-03-22T23:51:58.190Z,8.07
2018-03-22T23:54:26.517Z,8.10
2018-03-22T23:56:54.835Z,8.08
2018-03-22T23:59:23.168Z,8.13
